WetterOnline ( http://www.wetteronline.de )

Wetter aktuell Denkendorf

Aktuelles Wetter: Gelbelsee (539m)

6-stündlich | Neueste Meldungen
Ortszeit Temperatur Wetter
Mo, 18.03. 19:00 4.2° C leicht bewölkt
Mo, 18.03. 13:00 5.0° C wolkig
Mo, 18.03. 7:00 1.0° C wolkig
Mo, 18.03. 1:00 3.2° C bewölkt
So, 17.03. 19:00 4.2° C Regen
So, 17.03. 13:00 14.2° C bedeckt
So, 17.03. 7:00 6.6° C leicht bewölkt
So, 17.03. 1:00 6.1° C leicht bewölkt
Ortszeit Temperatur Wetter
Mo, 18.03. 21:00 2.1° C fast wolkenlos
Mo, 18.03. 20:50 2.1° C fast wolkenlos
Mo, 18.03. 20:40 2.2° C wolkenlos
Mo, 18.03. 20:30 2.0° C leicht bewölkt
Mo, 18.03. 20:20 2.0° C leicht bewölkt
Mo, 18.03. 20:10 1.9° C bewölkt
Mo, 18.03. 20:00 2.3° C bewölkt
Mo, 18.03. 19:30 4.3° C bedeckt
Mo, 18.03. 19:00 4.2° C leicht bewölkt
Mo, 18.03. 18:30 5.0° C wolkig
Mo, 18.03. 18:00 5.6° C bewölkt
Ortszeit Relative Feuchte Sichtweite
Mo, 18.03. 19:00 63% >70 km
Mo, 18.03. 13:00 55% 60 km
Mo, 18.03. 7:00 87% 55 km
Mo, 18.03. 1:00 78% >70 km
So, 17.03. 19:00 81% 45 km
So, 17.03. 13:00 40% 65 km
So, 17.03. 7:00 62% 65 km
So, 17.03. 1:00 81% 50 km
Ortszeit Relative Feuchte Sichtweite
Mo, 18.03. 21:00 86% 55 km
Mo, 18.03. 20:50 86% -
Mo, 18.03. 20:40 86% -
Mo, 18.03. 20:30 90% 50 km
Mo, 18.03. 20:20 90% -
Mo, 18.03. 20:10 90% -
Mo, 18.03. 20:00 87% 60 km
Mo, 18.03. 19:30 63% >70 km
Mo, 18.03. 19:00 63% >70 km
Mo, 18.03. 18:30 58% >70 km
Mo, 18.03. 18:00 59% >70 km
Ortszeit Niederschlagsmenge Niederschlagsart
Mo, 18.03. 19:00 0.1 l/m2 in 12 Std. -
Mo, 18.03. 13:00 0.1 l/m2 in 6 Std. Niederschlag
Mo, 18.03. 7:00 0.6 l/m2 in 12 Std. -
Mo, 18.03. 1:00 0.6 l/m2 in 6 Std. Niederschlag
So, 17.03. 19:00 0.1 l/m2 in 12 Std. Regen, Niederschlag
So, 17.03. 13:00 0.0 l/m2 in 6 Std. -
So, 17.03. 7:00 0.0 l/m2 in 12 Std. -
So, 17.03. 1:00 0.0 l/m2 in 6 Std. -
Ortszeit Niederschlagsmenge Niederschlagsart
Mo, 18.03. 21:00 0.0 l/m2 in 1 Std. -
Mo, 18.03. 20:50 keine Meldung -
Mo, 18.03. 20:40 keine Meldung -
Mo, 18.03. 20:30 0.0 l/m2 in 1 Std. -
Mo, 18.03. 20:20 keine Meldung -
Mo, 18.03. 20:10 keine Meldung -
Mo, 18.03. 20:00 0.4 l/m2 in 1 Std. Niederschlag
Mo, 18.03. 19:30 0.0 l/m2 in 1 Std. -
Mo, 18.03. 19:00 0.0 l/m2 in 1 Std. -
Mo, 18.03. 18:30 0.0 l/m2 in 1 Std. -
Mo, 18.03. 18:00 0.0 l/m2 in 1 Std. -
Ortszeit Stärke Spitze Richtung
km/h Bft. km/h Grad Sektor
Mo, 18.03. 19:00 9 2 39 290° W
Mo, 18.03. 13:00 24 4 41 290° W
Mo, 18.03. 7:00 9 2 31 240° SW
Mo, 18.03. 1:00 18 3 43 260° W
So, 17.03. 19:00 18 3 68 280° W
So, 17.03. 13:00 15 3 31 220° SW
So, 17.03. 7:00 11 2 25 200° S
So, 17.03. 1:00 9 2 15 220° SW
Ortszeit Stärke Spitze Richtung
km/h Bft. km/h Grad Sektor
Mo, 18.03. 21:00 4 1 14 300° NW
Mo, 18.03. 20:50 4 1 - 300° NW
Mo, 18.03. 20:40 7 2 - 310° NW
Mo, 18.03. 20:30 4 1 11 330° NW
Mo, 18.03. 20:20 4 1 - 330° NW
Mo, 18.03. 20:10 7 2 - 340° N
Mo, 18.03. 20:00 4 1 36 330° NW
Mo, 18.03. 19:30 7 2 11 290° W
Mo, 18.03. 19:00 9 2 24 290° W
Mo, 18.03. 18:30 15 3 24 290° W
Mo, 18.03. 18:00 11 2 25 280° W
Ortszeit Untergrenze Bedeckung Gattung
total tief tief mittel hoch
Mo, 18.03. 19:00 3000 m 2/8 2/8 - - -
Mo, 18.03. 13:00 990 m 6/8 6/8 - - -
Mo, 18.03. 7:00 1500 m 8/8 3/8 - - -
Mo, 18.03. 1:00 690 m 8/8 4/8 - - -
So, 17.03. 19:00 1260 m 7/8 7/8 - - -
So, 17.03. 13:00 2700 m 8/8 8/8 - - -
So, 17.03. 7:00 9000 m 6/8 0/8 - - -
So, 17.03. 1:00 8700 m 4/8 0/8 - - -
Ortszeit Bedeckungsgrad in Achtel und Wolkenuntergrenze
Mo, 18.03. 21:00 1(1500m)
Mo, 18.03. 20:50 1(1500m)
Mo, 18.03. 20:40 keine Wolken
Mo, 18.03. 20:30 2(1500m) 3(1800m)
Mo, 18.03. 20:20 2(1500m) 3(1800m)
Mo, 18.03. 20:10 1(600m) 6(1500m) 7(2100m)
Mo, 18.03. 20:00 2(360m) 7(1170m) 7(1500m)
Mo, 18.03. 19:30 1(1200m) 8(2700m) 8(2700m)
Mo, 18.03. 19:00 2(3000m)
Mo, 18.03. 18:30 4(1800m) 5(2100m)
Mo, 18.03. 18:00 1(1110m) 4(1500m) 7(2100m)
Ortszeit Luftdruck NN (hPa) Tendenz (hPa in 3 Std.)
Mo, 18.03. 19:00 1022 + 1,9
Mo, 18.03. 13:00 1020 + 1,0
Mo, 18.03. 7:00 1018 + 0,9
Mo, 18.03. 1:00 1016 + 1,6
So, 17.03. 19:00 1010 + 4,0
So, 17.03. 13:00 1004 - 1,1
So, 17.03. 7:00 1007 - 0,8
So, 17.03. 1:00 1009 - 1,1
Ortszeit Luftdruck NN (hPa) Tendenz (hPa in 3 Std.)
Mo, 18.03. 21:00 1023 + 2,0
Mo, 18.03. 20:50 1023 keine Meldung
Mo, 18.03. 20:40 1023 keine Meldung
Mo, 18.03. 20:30 1023 + 1,9
Mo, 18.03. 20:20 1023 keine Meldung
Mo, 18.03. 20:10 1023 keine Meldung
Mo, 18.03. 20:00 1023 + 2,3
Mo, 18.03. 19:30 1022 + 2,2
Mo, 18.03. 19:00 1022 + 1,9
Mo, 18.03. 18:30 1021 + 1,7
Mo, 18.03. 18:00 1020 + 1,3
Ortszeit Schneehöhe (cm)
Mo, 18.03. 19:00 0
Mo, 18.03. 13:00 0
Mo, 18.03. 7:00 0
Mo, 18.03. 1:00 0
So, 17.03. 19:00 0
So, 17.03. 13:00 0
So, 17.03. 7:00 0
So, 17.03. 1:00 0
Ortszeit Schneehöhe (cm)
Mo, 18.03. 21:00 0
Mo, 18.03. 20:50 0
Mo, 18.03. 20:40 0
Mo, 18.03. 20:30 0
Mo, 18.03. 20:20 0
Mo, 18.03. 20:10 0
Mo, 18.03. 20:00 0
Mo, 18.03. 19:30 0
Mo, 18.03. 19:00 0
Mo, 18.03. 18:30 0
Mo, 18.03. 18:00 0
Link zu dieser Seite / Seite empfehlen

Das Wetter in ...